createdAt,value
2019-03-12T00:01:57.218Z,90960.57
2019-03-12T00:04:45.616Z,90953.58
2019-03-12T00:07:36.099Z,90952.98
2019-03-12T00:10:25.826Z,90955.37
2019-03-12T00:13:14.705Z,90960.10
2019-03-12T00:16:04.576Z,90969.06
2019-03-12T00:19:10.936Z,90959.65
2019-03-12T00:22:02.277Z,90971.18
2019-03-12T00:24:50.284Z,90966.92
2019-03-12T00:27:38.214Z,90969.49
2019-03-12T00:30:28.902Z,90972.92
2019-03-12T00:33:18.104Z,90978.09
2019-03-12T00:36:08.618Z,90968.02
2019-03-12T00:38:57.734Z,90983.09
2019-03-12T00:41:48.807Z,90980.92
2019-03-12T00:44:37.011Z,90979.58
2019-03-12T00:47:25.381Z,90972.55
2019-03-12T00:50:16.803Z,90973.22
2019-03-12T00:53:08.330Z,90982.64
2019-03-12T00:55:56.570Z,90988.20
2019-03-12T00:58:45.271Z,90992.23
2019-03-12T01:01:33.824Z,90999.55
2019-03-12T01:04:22.538Z,90992.16
2019-03-12T01:07:12.676Z,91003.12
2019-03-12T01:10:03.852Z,91003.47
2019-03-12T01:12:52.335Z,90996.09
2019-03-12T01:15:41.280Z,91010.42
2019-03-12T01:18:30.410Z,91008.63
2019-03-12T01:21:18.642Z,91010.99
2019-03-12T01:24:06.854Z,91010.19
2019-03-12T01:26:55.600Z,91015.78
2019-03-12T01:29:45.532Z,91011.80
2019-03-12T01:32:34.219Z,91002.67
2019-03-12T01:35:21.858Z,90999.05
2019-03-12T01:38:13.823Z,91006.41
2019-03-12T01:41:01.929Z,91010.01
2019-03-12T01:43:50.038Z,91002.34
2019-03-12T01:46:38.246Z,91004.11
2019-03-12T01:49:26.656Z,91005.79
2019-03-12T01:52:14.796Z,91018.89
2019-03-12T01:55:02.895Z,91011.66
2019-03-12T01:57:51.324Z,91000.50
2019-03-12T02:00:39.958Z,91001.97
2019-03-12T02:03:28.280Z,91001.77
2019-03-12T02:06:16.670Z,90984.55
2019-03-12T02:09:05.191Z,90991.43
2019-03-12T02:11:53.850Z,91004.22
2019-03-12T02:14:41.881Z,90993.73
2019-03-12T02:17:30.340Z,90990.94
2019-03-12T02:20:18.302Z,91004.15
2019-03-12T02:23:06.824Z,91003.42
2019-03-12T02:25:55.507Z,91003.27
2019-03-12T02:28:43.454Z,90992.67
2019-03-12T02:31:31.844Z,90996.80
2019-03-12T02:34:20.734Z,90994.34
2019-03-12T02:37:09.218Z,90985.64
2019-03-12T02:39:57.176Z,90987.05
2019-03-12T02:42:45.119Z,91005.66
2019-03-12T02:45:32.996Z,90996.91
2019-03-12T02:48:21.600Z,91002.25
2019-03-12T02:51:09.922Z,91004.33
2019-03-12T02:53:58.347Z,90999.09
2019-03-12T02:56:46.745Z,90986.25
2019-03-12T02:59:35.185Z,90985.83
2019-03-12T03:02:23.773Z,91008.06
2019-03-12T03:05:12.110Z,91002.72
2019-03-12T03:08:06.235Z,90992.61
2019-03-12T03:10:54.620Z,90997.56
2019-03-12T03:13:43.030Z,91006.92
2019-03-12T03:16:31.396Z,91012.38
2019-03-12T03:19:19.323Z,91004.44
2019-03-12T03:22:07.671Z,90993.42
2019-03-12T03:24:55.365Z,90999.45
2019-03-12T03:27:43.764Z,91011.69
2019-03-12T03:30:32.379Z,91017.73
2019-03-12T03:33:20.409Z,91018.89
2019-03-12T03:36:09.628Z,91032.69
2019-03-12T03:38:57.297Z,91035.58
2019-03-12T03:41:45.362Z,91027.75
2019-03-12T03:44:33.090Z,91034.56
2019-03-12T03:47:20.866Z,91034.10
2019-03-12T03:50:09.430Z,91030.31
2019-03-12T03:52:57.844Z,91032.73
2019-03-12T03:55:46.146Z,91033.12
2019-03-12T03:58:34.442Z,91025.91
2019-03-12T04:01:22.797Z,91034.28
2019-03-12T04:04:11.150Z,91018.22
2019-03-12T04:06:59.459Z,91017.77
2019-03-12T04:09:47.765Z,91012.52
2019-03-12T04:12:36.118Z,91012.59
2019-03-12T04:15:24.080Z,91026.62
2019-03-12T04:18:11.840Z,91017.48
2019-03-12T04:21:00.306Z,91020.16
2019-03-12T04:23:48.019Z,91018.67
2019-03-12T04:26:36.401Z,91027.28
2019-03-12T04:29:24.843Z,91036.72
2019-03-12T04:32:13.463Z,91040.83
2019-03-12T04:35:01.829Z,91052.17
2019-03-12T04:37:50.099Z,91070.22
2019-03-12T04:40:38.441Z,91069.00
2019-03-12T04:43:26.932Z,91078.84
2019-03-12T04:46:15.338Z,91092.67
2019-03-12T04:49:04.222Z,91078.70
2019-03-12T04:51:52.239Z,91099.07
2019-03-12T04:54:40.257Z,91103.17
2019-03-12T04:57:28.738Z,91126.08
2019-03-12T05:00:17.084Z,91124.66
2019-03-12T05:03:05.162Z,91124.16
2019-03-12T05:05:53.631Z,91138.37
2019-03-12T05:08:42.237Z,91124.42
2019-03-12T05:11:30.298Z,91119.11
2019-03-12T05:14:49.426Z,91124.95
2019-03-12T05:17:37.273Z,91128.66
2019-03-12T05:20:25.627Z,91134.74
2019-03-12T05:23:14.043Z,91132.97
2019-03-12T05:26:02.081Z,91133.94
2019-03-12T05:28:53.948Z,91123.60
2019-03-12T05:31:42.123Z,91125.80
2019-03-12T05:34:30.638Z,91119.86
2019-03-12T05:37:19.081Z,91118.00
2019-03-12T05:40:08.768Z,91127.28
2019-03-12T05:45:17.830Z,91134.30
2019-03-12T05:48:05.856Z,91145.81
2019-03-12T05:50:53.844Z,91157.30
2019-03-12T05:53:51.034Z,91161.70
2019-03-12T05:56:38.760Z,91143.68
2019-03-12T05:59:27.297Z,91158.08
2019-03-12T06:02:16.120Z,91158.42
2019-03-12T06:05:04.203Z,91167.34
2019-03-12T06:07:55.352Z,91175.66
2019-03-12T06:10:41.943Z,91180.88
2019-03-12T06:13:30.169Z,91188.55
2019-03-12T06:16:18.515Z,91184.92
2019-03-12T06:19:06.982Z,91205.45
2019-03-12T06:21:55.341Z,91208.95
2019-03-12T06:24:43.986Z,91212.23
2019-03-12T06:27:32.006Z,91218.19
2019-03-12T06:30:20.463Z,91222.23
2019-03-12T06:33:16.028Z,91223.93
2019-03-12T06:36:17.152Z,91223.06
2019-03-12T06:39:25.206Z,91237.05
2019-03-12T06:42:34.159Z,91232.48
2019-03-12T06:45:43.361Z,91225.13
2019-03-12T06:48:53.922Z,91234.52
2019-03-12T06:51:59.665Z,91238.48
2019-03-12T06:55:12.296Z,91239.38
2019-03-12T06:58:22.286Z,91226.81
2019-03-12T07:01:27.608Z,91226.11
2019-03-12T07:04:27.482Z,91220.80
2019-03-12T07:07:34.129Z,91216.99
2019-03-12T07:10:49.512Z,91233.16
2019-03-12T07:14:05.831Z,91240.23
2019-03-12T07:17:03.658Z,91241.39
2019-03-12T07:20:19.554Z,91236.05
2019-03-12T07:23:35.675Z,91246.42
2019-03-12T07:26:51.533Z,91239.92
2019-03-12T07:30:01.136Z,91232.35
2019-03-12T07:33:01.100Z,91235.91
2019-03-12T07:36:11.293Z,91240.92
2019-03-12T07:39:09.342Z,91240.45
2019-03-12T07:42:16.747Z,91243.25
2019-03-12T07:45:19.267Z,91242.95
2019-03-12T07:48:26.080Z,91247.30
2019-03-12T07:51:42.206Z,91247.48
2019-03-12T07:54:47.561Z,91248.17
2019-03-12T07:57:57.324Z,91257.20
2019-03-12T08:01:11.975Z,91259.51
2019-03-12T08:04:14.798Z,91268.03
2019-03-12T08:07:20.400Z,91263.09
2019-03-12T08:10:17.243Z,91261.09
2019-03-12T08:13:10.851Z,91261.30
2019-03-12T08:16:18.120Z,91264.10
2019-03-12T08:19:17.951Z,91268.67
2019-03-12T08:22:28.155Z,91272.92
2019-03-12T08:25:44.175Z,91274.30
2019-03-12T08:28:54.316Z,91279.02
2019-03-12T08:31:58.226Z,91279.73
2019-03-12T08:35:03.675Z,91276.47
2019-03-12T08:38:00.128Z,91279.27
2019-03-12T08:40:55.822Z,91282.88
2019-03-12T08:44:08.889Z,91285.06
2019-03-12T08:47:11.669Z,91285.45
2019-03-12T08:50:18.691Z,91289.34
2019-03-12T08:53:25.519Z,91296.17
2019-03-12T08:56:32.751Z,91293.88
2019-03-12T08:59:45.012Z,91302.28
2019-03-12T09:02:57.899Z,91304.23
2019-03-12T09:06:03.447Z,91297.41
2019-03-12T09:09:08.597Z,91293.41
2019-03-12T09:12:21.825Z,91297.11
2019-03-12T09:15:23.794Z,91301.03
2019-03-12T09:18:29.383Z,91310.34
2019-03-12T09:21:34.743Z,91311.31
2019-03-12T09:24:41.767Z,91302.72
2019-03-12T09:27:57.763Z,91299.44
2019-03-12T09:31:03.251Z,91305.95
2019-03-12T09:34:10.277Z,91315.18
2019-03-12T09:37:19.689Z,91315.28
2019-03-12T09:40:27.794Z,91306.39
2019-03-12T09:43:33.623Z,91313.61
2019-03-12T09:46:46.957Z,91322.53
2019-03-12T09:49:45.799Z,91324.50
2019-03-12T09:52:51.935Z,91322.00
2019-03-12T09:55:57.883Z,91321.73
2019-03-12T09:59:02.220Z,91321.91
2019-03-12T10:02:12.413Z,91323.52
2019-03-12T10:05:09.825Z,91330.14
2019-03-12T10:08:26.453Z,91336.06
2019-03-12T10:11:21.420Z,91342.77
2019-03-12T10:14:31.158Z,91340.98
2019-03-12T10:17:36.635Z,91345.28
2019-03-12T10:20:43.811Z,91345.61
2019-03-12T10:23:52.361Z,91346.81
2019-03-12T10:26:59.350Z,91356.34
2019-03-12T10:29:52.925Z,91367.21
2019-03-12T10:32:52.880Z,91376.28
2019-03-12T10:35:53.836Z,91383.88
2019-03-12T10:39:19.255Z,91394.25
2019-03-12T10:42:17.967Z,91403.66
2019-03-12T10:45:11.838Z,91409.84
2019-03-12T10:48:00.168Z,91403.37
2019-03-12T10:50:48.318Z,91399.41
2019-03-12T10:53:36.139Z,91400.55
2019-03-12T10:56:24.868Z,91396.55
2019-03-12T10:59:12.560Z,91388.60
2019-03-12T11:02:00.364Z,91388.84
2019-03-12T11:04:48.233Z,91396.28
2019-03-12T11:07:36.596Z,91401.63
2019-03-12T11:10:25.123Z,91415.87
2019-03-12T11:13:14.807Z,91413.33
2019-03-12T11:16:03.440Z,91418.45
2019-03-12T11:18:51.526Z,91419.59
2019-03-12T11:21:39.955Z,91432.81
2019-03-12T11:24:28.348Z,91443.73
2019-03-12T11:27:16.799Z,91430.84
2019-03-12T11:30:05.600Z,91435.67
2019-03-12T11:32:53.711Z,91428.55
2019-03-12T11:35:42.107Z,91420.02
2019-03-12T11:38:30.749Z,91413.50
2019-03-12T11:41:18.724Z,91408.27
2019-03-12T11:44:06.809Z,91404.19
2019-03-12T11:46:55.253Z,91397.22
2019-03-12T11:49:43.051Z,91386.25
2019-03-12T11:52:31.218Z,91389.63
2019-03-12T11:55:18.905Z,91400.95
2019-03-12T11:58:07.343Z,91391.94
2019-03-12T12:01:05.917Z,91384.48
2019-03-12T12:03:54.671Z,91376.62
2019-03-12T12:06:43.648Z,91386.85
2019-03-12T12:09:31.510Z,91387.59
2019-03-12T12:12:20.011Z,91389.25
2019-03-12T12:15:08.106Z,91384.70
2019-03-12T12:17:56.085Z,91389.23
2019-03-12T12:20:44.250Z,91385.69
2019-03-12T12:23:32.739Z,91384.59
2019-03-12T12:26:22.503Z,91387.42
2019-03-12T12:29:12.035Z,91388.19
2019-03-12T12:32:01.301Z,91383.09
2019-03-12T12:34:50.711Z,91373.69
2019-03-12T12:37:39.577Z,91377.95
2019-03-12T12:40:29.156Z,91361.77
2019-03-12T12:43:17.387Z,91350.52
2019-03-12T12:46:05.783Z,91340.56
2019-03-12T12:48:53.780Z,91338.36
2019-03-12T12:51:42.349Z,91341.27
2019-03-12T12:54:30.584Z,91339.61
2019-03-12T12:57:18.654Z,91338.63
2019-03-12T13:00:07.879Z,91338.98
2019-03-12T13:02:56.205Z,91342.98
2019-03-12T13:05:44.814Z,91341.36
2019-03-12T13:08:32.853Z,91351.35
2019-03-12T13:11:21.377Z,91355.50
2019-03-12T13:14:09.428Z,91341.53
2019-03-12T13:16:57.634Z,91340.66
2019-03-12T13:19:46.321Z,91342.61
2019-03-12T13:22:35.002Z,91344.69
2019-03-12T13:25:23.399Z,91342.19
2019-03-12T13:28:11.866Z,91346.27
2019-03-12T13:30:59.755Z,91348.27
2019-03-12T13:33:47.895Z,91344.69
2019-03-12T13:36:35.998Z,91330.62
2019-03-12T13:39:24.053Z,91328.45
2019-03-12T13:42:18.117Z,91331.61
2019-03-12T13:45:06.097Z,91346.59
2019-03-12T13:47:57.252Z,91357.78
2019-03-12T13:50:45.556Z,91371.08
2019-03-12T13:53:33.618Z,91370.39
2019-03-12T13:56:21.340Z,91363.42
2019-03-12T13:59:09.723Z,91360.58
2019-03-12T14:01:57.938Z,91358.64
2019-03-12T14:04:46.055Z,91359.50
2019-03-12T14:07:34.260Z,91356.11
2019-03-12T14:10:22.666Z,91355.57
2019-03-12T14:13:11.358Z,91372.73
2019-03-12T14:15:59.656Z,91369.17
2019-03-12T14:18:48.120Z,91379.38
2019-03-12T14:21:41.111Z,91378.18
2019-03-12T14:24:29.117Z,91381.11
2019-03-12T14:27:17.952Z,91378.73
2019-03-12T14:30:05.839Z,91393.94
2019-03-12T14:32:54.530Z,91399.31
2019-03-12T14:35:51.343Z,91410.05
2019-03-12T14:38:32.055Z,91411.45
2019-03-12T14:41:20.232Z,91406.62
2019-03-12T14:44:08.472Z,91406.33
2019-03-12T14:46:57.030Z,91406.66
2019-03-12T14:49:45.545Z,91404.47
2019-03-12T14:52:35.895Z,91417.57
2019-03-12T14:55:24.552Z,91424.86
2019-03-12T14:58:13.046Z,91428.34
2019-03-12T15:01:01.248Z,91433.19
2019-03-12T15:03:49.988Z,91423.08
2019-03-12T15:06:38.764Z,91431.09
2019-03-12T15:09:26.728Z,91433.39
2019-03-12T15:12:15.188Z,91432.54
2019-03-12T15:15:03.785Z,91433.08
2019-03-12T15:17:51.927Z,91432.97
2019-03-12T15:20:40.366Z,91432.42
2019-03-12T15:23:28.560Z,91432.23
2019-03-12T15:26:16.998Z,91429.42
2019-03-12T15:29:05.429Z,91424.63
2019-03-12T15:32:03.421Z,91430.55
2019-03-12T15:34:49.069Z,91439.63
2019-03-12T15:37:37.103Z,91447.47
2019-03-12T15:40:25.611Z,91452.80
2019-03-12T15:43:14.224Z,91456.65
2019-03-12T15:46:02.302Z,91467.64
2019-03-12T15:48:50.332Z,91471.30
2019-03-12T15:51:38.730Z,91475.71
2019-03-12T15:54:27.240Z,91482.56
2019-03-12T15:57:15.588Z,91477.84
2019-03-12T16:00:03.996Z,91485.78
2019-03-12T16:02:52.305Z,91481.84
2019-03-12T16:05:40.535Z,91477.97
2019-03-12T16:08:28.885Z,91484.97
2019-03-12T16:11:17.055Z,91487.55
2019-03-12T16:14:05.395Z,91491.34
2019-03-12T16:16:53.921Z,91512.91
2019-03-12T16:19:42.104Z,91516.02
2019-03-12T16:22:30.428Z,91524.78
2019-03-12T16:25:18.899Z,91538.63
2019-03-12T16:28:07.256Z,91536.84
2019-03-12T16:30:55.729Z,91538.09
2019-03-12T16:33:44.105Z,91557.58
2019-03-12T16:36:32.077Z,91545.32
2019-03-12T16:39:20.108Z,91556.28
2019-03-12T16:42:08.704Z,91552.03
2019-03-12T16:44:56.804Z,91570.83
2019-03-12T16:47:45.208Z,91580.41
2019-03-12T16:50:33.328Z,91594.23
2019-03-12T16:53:20.963Z,91592.02
2019-03-12T16:56:09.464Z,91599.81
2019-03-12T16:58:57.896Z,91616.32
2019-03-12T17:01:46.318Z,91622.70
2019-03-12T17:04:34.731Z,91614.64
2019-03-12T17:07:23.222Z,91610.28
2019-03-12T17:10:11.282Z,91609.48
2019-03-12T17:12:58.754Z,91615.50
2019-03-12T17:15:47.059Z,91620.12
2019-03-12T17:18:35.036Z,91625.45
2019-03-12T17:21:23.396Z,91625.50
2019-03-12T17:24:11.575Z,91639.16
2019-03-12T17:26:59.999Z,91643.33
2019-03-12T17:29:48.235Z,91645.45
2019-03-12T17:32:36.380Z,91657.56
2019-03-12T17:35:28.755Z,91656.70
2019-03-12T17:38:16.806Z,91667.00
2019-03-12T17:41:05.281Z,91663.16
2019-03-12T17:43:53.285Z,91670.55
2019-03-12T17:46:41.456Z,91673.38
2019-03-12T17:49:30.177Z,91671.78
2019-03-12T17:52:18.574Z,91684.59
2019-03-12T17:55:07.073Z,91688.77
2019-03-12T17:57:55.345Z,91701.19
2019-03-12T18:00:44.499Z,91696.50
2019-03-12T18:03:32.222Z,91702.33
2019-03-12T18:06:20.634Z,91704.97
2019-03-12T18:09:08.910Z,91718.16
2019-03-12T18:11:56.757Z,91726.14
2019-03-12T18:14:45.242Z,91730.98
2019-03-12T18:17:33.672Z,91728.62
2019-03-12T18:20:22.149Z,91729.89
2019-03-12T18:23:10.471Z,91734.59
2019-03-12T18:25:59.071Z,91735.62
2019-03-12T18:28:47.209Z,91735.70
2019-03-12T18:31:35.916Z,91744.44
2019-03-12T18:34:23.923Z,91750.15
2019-03-12T18:37:12.037Z,91756.08
2019-03-12T18:40:00.407Z,91754.16
2019-03-12T18:42:51.636Z,91757.62
2019-03-12T18:45:39.618Z,91765.41
2019-03-12T18:48:28.086Z,91764.58
2019-03-12T18:51:15.885Z,91768.55
2019-03-12T18:54:04.025Z,91770.95
2019-03-12T18:56:52.231Z,91772.62
2019-03-12T18:59:40.702Z,91775.16
2019-03-12T19:02:28.909Z,91772.78
2019-03-12T19:05:16.635Z,91766.71
2019-03-12T19:08:05.060Z,91763.20
2019-03-12T19:10:53.092Z,91770.89
2019-03-12T19:13:41.764Z,91774.02
2019-03-12T19:16:30.208Z,91776.62
2019-03-12T19:19:18.852Z,91792.08
2019-03-12T19:22:06.984Z,91797.91
2019-03-12T19:24:56.135Z,91794.53
2019-03-12T19:27:44.010Z,91805.32
2019-03-12T19:30:33.009Z,91802.42
2019-03-12T19:33:22.409Z,91810.78
2019-03-12T19:36:10.587Z,91812.82
2019-03-12T19:38:59.030Z,91816.40
2019-03-12T19:41:47.507Z,91830.59
2019-03-12T19:44:35.647Z,91830.98
2019-03-12T19:47:23.740Z,91832.56
2019-03-12T19:50:13.156Z,91834.44
2019-03-12T19:53:00.993Z,91830.48
2019-03-12T19:55:49.373Z,91836.02
2019-03-12T19:58:37.536Z,91839.48
2019-03-12T20:01:29.179Z,91847.58
2019-03-12T20:04:17.152Z,91853.06
2019-03-12T20:07:05.305Z,91858.73
2019-03-12T20:10:11.240Z,91857.70
2019-03-12T20:13:10.643Z,91858.61
2019-03-12T20:16:21.286Z,91866.95
2019-03-12T20:19:27.725Z,91866.75
2019-03-12T20:22:34.779Z,91873.78
2019-03-12T20:25:51.480Z,91870.00
2019-03-12T20:29:02.088Z,91873.04
2019-03-12T20:32:08.222Z,91871.81
2019-03-12T20:35:30.994Z,91876.59
2019-03-12T20:38:38.100Z,91878.50
2019-03-12T20:41:44.083Z,91879.84
2019-03-12T20:45:00.780Z,91879.70
2019-03-12T20:48:13.709Z,91882.83
2019-03-12T20:51:28.928Z,91882.17
2019-03-12T20:54:38.890Z,91879.73
2019-03-12T20:57:45.997Z,91883.43
2019-03-12T21:01:12.279Z,91884.66
2019-03-12T21:04:19.412Z,91889.59
2019-03-12T21:07:25.259Z,91892.52
2019-03-12T21:10:31.891Z,91894.75
2019-03-12T21:13:38.786Z,91888.63
2019-03-12T21:16:44.952Z,91895.62
2019-03-12T21:19:53.751Z,91895.88
2019-03-12T21:23:13.500Z,91898.26
2019-03-12T21:26:06.905Z,91895.53
2019-03-12T21:29:13.990Z,91892.52
2019-03-12T21:32:01.848Z,91887.49
2019-03-12T21:34:50.517Z,91882.73
2019-03-12T21:37:38.975Z,91881.80
2019-03-12T21:40:26.643Z,91882.64
2019-03-12T21:43:14.110Z,91889.33
2019-03-12T21:46:02.158Z,91885.73
2019-03-12T21:48:50.662Z,91893.03
2019-03-12T21:51:39.100Z,91885.88
2019-03-12T21:54:27.376Z,91882.80
2019-03-12T21:57:15.408Z,91880.48
2019-03-12T22:00:03.592Z,91884.02
2019-03-12T22:02:51.674Z,91880.36
2019-03-12T22:05:41.152Z,91885.39
2019-03-12T22:08:29.216Z,91887.11
2019-03-12T22:11:17.715Z,91887.49
2019-03-12T22:14:06.236Z,91885.72
2019-03-12T22:16:57.391Z,91887.45
2019-03-12T22:19:44.874Z,91883.40
2019-03-12T22:22:43.612Z,91886.87
2019-03-12T22:25:31.568Z,91876.31
2019-03-12T22:28:19.900Z,91871.22
2019-03-12T22:31:07.591Z,91865.33
2019-03-12T22:33:56.110Z,91867.92
2019-03-12T22:36:43.895Z,91858.72
2019-03-12T22:39:32.267Z,91855.63
2019-03-12T22:42:20.016Z,91856.63
2019-03-12T22:45:08.622Z,91872.78
2019-03-12T22:47:56.524Z,91868.89
2019-03-12T22:50:44.349Z,91874.02
2019-03-12T22:53:32.812Z,91871.06
2019-03-12T22:56:21.194Z,91881.53
2019-03-12T22:59:09.659Z,91868.47
2019-03-12T23:01:58.011Z,91866.75
2019-03-12T23:04:46.355Z,91867.59
2019-03-12T23:07:35.674Z,91864.69
2019-03-12T23:10:24.353Z,91868.97
2019-03-12T23:13:12.363Z,91870.00
2019-03-12T23:16:00.825Z,91867.34
2019-03-12T23:18:48.975Z,91870.69
2019-03-12T23:21:37.411Z,91868.77
2019-03-12T23:24:25.876Z,91865.48
2019-03-12T23:27:13.944Z,91871.35
2019-03-12T23:30:01.982Z,91870.69
2019-03-12T23:32:50.396Z,91864.85
2019-03-12T23:35:38.650Z,91864.50
2019-03-12T23:38:27.035Z,91851.92
2019-03-12T23:41:15.439Z,91855.02
2019-03-12T23:44:03.214Z,91861.02
2019-03-12T23:46:51.612Z,91859.70
2019-03-12T23:49:39.829Z,91861.39
2019-03-12T23:52:28.248Z,91855.89
2019-03-12T23:55:17.972Z,91861.12
2019-03-12T23:58:05.468Z,91857.43
